Weather at Buffalo Municipal Airport

Public forecast

Using degrees Fahrenheit for public forecast. Weather courtesy of forecast.io.

Current aviation weather report (METAR) for Buffalo Municipal Airport

Retrieved 2020/10/20 16:35 UTC (8 minutes ago):

KCFE 201635Z 3/4SM -SN OVC009 00/M02 A3018 RMK AO2 T10051020

Closest aviation forecast (TAF) to Buffalo Municipal Airport

Closest forecast is Saint Cloud Regional Airport, 25.0 nm (46.3 km) NNW. Retrieved 2020/10/20 12:33 UTC (4 hours ago):

TAF KSTC 201130Z 2012/2112 13003KT 6SM BR SCT008 OVC030 FM201600 13009KT 3SM -SN BR OVC015 FM201800 14010KT 1/2SM SN OVC007 FM202200 13009KT 3SM -SN OVC008 FM210200 16003KT 6SM BR OVC007 FM210800 27006KT P6SM BKN008